Time;durP1;ratioP1;P1;durP2;ratioP2;P2;SDS_P1;SDS_P2;PMS_P1;PMS_P2;Temp;Humidity;BMP_temperature;BMP_pressure;BME280_temperature;BME280_humidity;BME280_pressure;Samples;Min_cycle;Max_cycle;Signal;HPM_P1;HPM_P2
2023/03/19 00:02:18;;;;;;;19.30;11.27;;;;;;;;;;5096528;28;20449;-65
2023/03/19 00:04:45;;;;;;;11.23;9.53;;;;;;;;;;5096468;28;20482;-65
2023/03/19 00:07:14;;;;;;;13.93;10.13;;;;;;;;;;5096615;28;20446;-65
2023/03/19 00:09:41;;;;;;;11.07;9.87;;;;;;;;;;5096274;28;20945;-65
2023/03/19 00:12:09;;;;;;;11.23;9.40;;;;;;;;;;5096383;28;20758;-65
2023/03/19 00:14:36;;;;;;;12.20;9.93;;;;;;;;;;5096403;28;20478;-65
2023/03/19 00:17:03;;;;;;;9.30;8.40;;;;;;;;;;5096084;28;20475;-65
2023/03/19 00:19:29;;;;;;;12.43;8.80;;;;;;;;;;5096404;28;20958;-65
2023/03/19 00:21:57;;;;;;;13.07;8.70;;;;;;;;;;5096171;28;20447;-65
2023/03/19 00:24:25;;;;;;;21.70;17.37;;;;;;;;;;5096128;28;20482;-65
2023/03/19 00:26:52;;;;;;;13.13;11.70;;;;;;;;;;5096582;28;20508;-65
2023/03/19 00:29:19;;;;;;;8.23;7.43;;;;;;;;;;5095994;28;20810;-65
2023/03/19 00:31:46;;;;;;;13.00;8.33;;;;;;;;;;5095962;28;20422;-65
2023/03/19 00:34:17;;;;;;;9.97;8.67;;;;;;;;;;5096301;28;20540;-65
2023/03/19 00:36:44;;;;;;;10.83;8.33;;;;;;;;;;5096071;28;20454;-65
2023/03/19 00:39:11;;;;;;;10.30;7.30;;;;;;;;;;5095917;28;20530;-65
2023/03/19 00:41:39;;;;;;;9.60;7.47;;;;;;;;;;5095861;28;20482;-65
2023/03/19 00:44:06;;;;;;;11.07;7.07;;;;;;;;;;5095589;28;20477;-65
2023/03/19 00:46:33;;;;;;;8.50;7.70;;;;;;;;;;5095856;28;20447;-65
2023/03/19 00:49:00;;;;;;;9.73;7.23;;;;;;;;;;5095824;28;20426;-65
2023/03/19 00:51:27;;;;;;;11.90;8.33;;;;;;;;;;5095732;28;20972;-65
2023/03/19 00:53:54;;;;;;;9.53;7.83;;;;;;;;;;5094934;28;21027;-65
2023/03/19 00:56:21;;;;;;;8.97;7.90;;;;;;;;;;5095542;28;20738;-65
2023/03/19 00:58:49;;;;;;;9.10;8.20;;;;;;;;;;5095471;28;20457;-65
2023/03/19 01:01:17;;;;;;;9.53;8.53;;;;;;;;;;5095446;28;20451;-65
2023/03/19 01:03:45;;;;;;;8.67;7.87;;;;;;;;;;5095387;28;20493;-65
2023/03/19 01:06:12;;;;;;;9.83;8.70;;;;;;;;;;5095385;28;20934;-65
2023/03/19 01:08:39;;;;;;;8.97;8.10;;;;;;;;;;5095412;28;20518;-65
2023/03/19 01:11:07;;;;;;;9.43;8.40;;;;;;;;;;5095131;28;20447;-65
2023/03/19 01:13:34;;;;;;;9.40;8.20;;;;;;;;;;5095460;28;20768;-65
2023/03/19 01:16:03;;;;;;;10.90;8.60;;;;;;;;;;5095209;28;20450;-65
2023/03/19 01:18:30;;;;;;;9.27;8.37;;;;;;;;;;5094965;28;20485;-65
2023/03/19 01:20:57;;;;;;;9.20;8.20;;;;;;;;;;5095034;28;20485;-65
2023/03/19 01:23:24;;;;;;;9.20;8.07;;;;;;;;;;5094975;28;20455;-65
2023/03/19 01:25:51;;;;;;;10.27;6.93;;;;;;;;;;5094784;28;20483;-65
2023/03/19 01:28:18;;;;;;;9.13;8.17;;;;;;;;;;5095102;28;20451;-65
2023/03/19 01:30:45;;;;;;;8.80;7.87;;;;;;;;;;5094851;28;20447;-65
2023/03/19 01:33:13;;;;;;;14.20;10.37;;;;;;;;;;5094912;28;20454;-65
2023/03/19 01:35:40;;;;;;;14.37;10.30;;;;;;;;;;5094851;28;20451;-65
2023/03/19 01:38:07;;;;;;;10.37;9.37;;;;;;;;;;5094746;28;20447;-65
2023/03/19 01:40:35;;;;;;;16.57;11.70;;;;;;;;;;5094573;28;20458;-65
2023/03/19 01:43:14;;;;;;;15.03;11.47;;;;;;;;;;5094812;28;20447;-65
2023/03/19 01:45:42;;;;;;;12.47;9.53;;;;;;;;;;5094662;28;21073;-65
2023/03/19 01:48:13;;;;;;;11.37;9.80;;;;;;;;;;5094440;28;20539;-65
2023/03/19 01:50:42;;;;;;;10.40;9.10;;;;;;;;;;5094406;28;20465;-65
2023/03/19 01:53:10;;;;;;;10.40;8.03;;;;;;;;;;5094304;28;20439;-65
2023/03/19 01:55:38;;;;;;;10.60;8.03;;;;;;;;;;5094549;28;20787;-65
2023/03/19 01:58:06;;;;;;;9.87;8.70;;;;;;;;;;5094463;28;20806;-65
2023/03/19 02:00:34;;;;;;;15.40;9.00;;;;;;;;;;5094292;28;20478;-65
2023/03/19 02:03:02;;;;;;;11.43;9.60;;;;;;;;;;5094260;28;20945;-65
2023/03/19 02:05:29;;;;;;;13.60;8.70;;;;;;;;;;5093201;28;20552;-65
2023/03/19 02:07:59;;;;;;;10.57;9.10;;;;;;;;;;5094346;28;20779;-65
2023/03/19 02:10:27;;;;;;;8.60;7.67;;;;;;;;;;5094286;28;20451;-65
2023/03/19 02:12:54;;;;;;;9.70;8.70;;;;;;;;;;5094131;28;20453;-65
2023/03/19 02:15:21;;;;;;;10.73;8.90;;;;;;;;;;5094075;28;20447;-65
2023/03/19 02:17:48;;;;;;;10.90;8.30;;;;;;;;;;5093824;28;20475;-65
2023/03/19 02:20:18;;;;;;;11.10;8.00;;;;;;;;;;5093794;28;20439;-65
2023/03/19 02:22:50;;;;;;;12.43;8.50;;;;;;;;;;5094100;28;20508;-65
2023/03/19 02:25:22;;;;;;;9.77;8.40;;;;;;;;;;5093957;28;20489;-65
2023/03/19 02:27:50;;;;;;;9.20;8.30;;;;;;;;;;5093878;28;20874;-65
2023/03/19 02:30:18;;;;;;;12.43;8.80;;;;;;;;;;5093706;28;20516;-65
2023/03/19 02:32:45;;;;;;;8.73;7.93;;;;;;;;;;5093950;28;20429;-65
2023/03/19 02:35:12;;;;;;;14.13;9.17;;;;;;;;;;5093780;28;20455;-65
2023/03/19 02:37:39;;;;;;;12.90;8.70;;;;;;;;;;5093847;28;20538;-65
2023/03/19 02:40:08;;;;;;;9.90;8.13;;;;;;;;;;5093581;28;20446;-65
2023/03/19 02:42:35;;;;;;;10.83;9.70;;;;;;;;;;5093520;28;20972;-65
2023/03/19 02:45:04;;;;;;;10.10;8.20;;;;;;;;;;5093420;28;21078;-65
2023/03/19 02:47:31;;;;;;;9.80;8.20;;;;;;;;;;5093668;28;20454;-65
2023/03/19 02:49:58;;;;;;;8.90;8.00;;;;;;;;;;5093483;28;20450;-65
2023/03/19 02:52:25;;;;;;;11.80;8.20;;;;;;;;;;5093792;28;20534;-65
2023/03/19 02:54:51;;;;;;;10.53;8.00;;;;;;;;;;5093710;28;20447;-64
2023/03/19 02:57:19;;;;;;;8.73;7.50;;;;;;;;;;5093389;28;20447;-65
2023/03/19 02:59:46;;;;;;;10.17;7.73;;;;;;;;;;5093134;28;20526;-65
2023/03/19 03:02:14;;;;;;;12.13;7.93;;;;;;;;;;5093448;28;20447;-65
2023/03/19 03:04:41;;;;;;;9.50;8.57;;;;;;;;;;5093288;28;20485;-65
2023/03/19 03:07:08;;;;;;;9.30;8.40;;;;;;;;;;5093414;28;20486;-65
2023/03/19 03:09:36;;;;;;;9.93;8.80;;;;;;;;;;5093085;28;20838;-65
2023/03/19 03:12:03;;;;;;;10.07;8.47;;;;;;;;;;5093013;28;20533;-65
2023/03/19 03:14:30;;;;;;;9.83;8.47;;;;;;;;;;5093306;28;20538;-65
2023/03/19 03:16:57;;;;;;;12.00;9.10;;;;;;;;;;5092871;28;20830;-65
2023/03/19 03:19:26;;;;;;;9.80;8.80;;;;;;;;;;5093119;28;20417;-65
2023/03/19 03:21:52;;;;;;;9.67;8.53;;;;;;;;;;5093041;28;20443;-65
2023/03/19 03:24:20;;;;;;;9.80;8.67;;;;;;;;;;5092975;28;20537;-65
2023/03/19 03:26:47;;;;;;;10.07;7.90;;;;;;;;;;5092847;28;20815;-65
2023/03/19 03:29:14;;;;;;;10.53;8.10;;;;;;;;;;5093109;28;20479;-65
2023/03/19 03:31:41;;;;;;;11.40;8.63;;;;;;;;;;5093079;28;20815;-65
2023/03/19 03:34:08;;;;;;;10.20;9.07;;;;;;;;;;5093085;28;20508;-65
2023/03/19 03:36:36;;;;;;;13.07;9.07;;;;;;;;;;5092938;28;20457;-65
2023/03/19 03:39:03;;;;;;;9.33;8.13;;;;;;;;;;5092754;28;20462;-65
2023/03/19 03:41:30;;;;;;;10.67;9.00;;;;;;;;;;5092995;28;20451;-65
2023/03/19 03:43:57;;;;;;;11.47;8.00;;;;;;;;;;5093002;28;20453;-65
2023/03/19 03:46:24;;;;;;;11.30;8.30;;;;;;;;;;5092801;28;20489;-65
2023/03/19 03:48:51;;;;;;;10.00;7.87;;;;;;;;;;5092865;28;20451;-65
2023/03/19 03:51:18;;;;;;;12.87;9.27;;;;;;;;;;5092612;28;20541;-65
2023/03/19 03:53:46;;;;;;;10.30;8.93;;;;;;;;;;5092700;28;20454;-65
2023/03/19 03:56:13;;;;;;;9.50;8.27;;;;;;;;;;5092694;28;20945;-65
2023/03/19 03:58:40;;;;;;;9.47;8.60;;;;;;;;;;5092918;28;20546;-65
2023/03/19 04:01:07;;;;;;;10.37;8.50;;;;;;;;;;5092789;28;20934;-65
2023/03/19 04:03:34;;;;;;;12.47;8.97;;;;;;;;;;5092790;28;20845;-65
2023/03/19 04:06:01;;;;;;;9.07;8.00;;;;;;;;;;5092610;28;20515;-65
2023/03/19 04:08:28;;;;;;;13.70;8.80;;;;;;;;;;5092522;28;20542;-65
2023/03/19 04:10:57;;;;;;;10.07;9.13;;;;;;;;;;5092631;28;20538;-65
2023/03/19 04:13:24;;;;;;;10.43;9.30;;;;;;;;;;5092701;28;20442;-65
2023/03/19 04:15:53;;;;;;;10.70;8.90;;;;;;;;;;5092888;28;20455;-65
2023/03/19 04:18:20;;;;;;;15.00;9.17;;;;;;;;;;5092579;28;20482;-65
2023/03/19 04:20:47;;;;;;;10.13;9.13;;;;;;;;;;5092285;28;20542;-65
2023/03/19 04:23:14;;;;;;;9.70;8.70;;;;;;;;;;5092664;28;20537;-65
2023/03/19 04:25:41;;;;;;;11.90;10.30;;;;;;;;;;5092476;28;20565;-65
2023/03/19 04:28:09;;;;;;;11.33;8.80;;;;;;;;;;5094382;28;20426;-65
2023/03/19 04:30:36;;;;;;;10.93;9.17;;;;;;;;;;5096070;28;20488;-65
2023/03/19 04:33:03;;;;;;;11.10;9.10;;;;;;;;;;5096041;28;20446;-65
2023/03/19 04:35:30;;;;;;;9.90;8.83;;;;;;;;;;5095888;28;20542;-65
2023/03/19 04:37:57;;;;;;;12.00;9.57;;;;;;;;;;5096062;28;20549;-65
2023/03/19 04:40:24;;;;;;;9.07;8.17;;;;;;;;;;5095893;28;20454;-65
2023/03/19 04:42:51;;;;;;;11.30;8.90;;;;;;;;;;5096044;28;20453;-65
2023/03/19 04:45:19;;;;;;;10.40;9.27;;;;;;;;;;5095760;28;20519;-65
2023/03/19 04:47:46;;;;;;;11.43;9.90;;;;;;;;;;5095728;28;20451;-65
2023/03/19 04:50:13;;;;;;;10.00;8.90;;;;;;;;;;5095864;28;20537;-65
2023/03/19 04:52:40;;;;;;;10.80;9.30;;;;;;;;;;5095792;28;20483;-65
2023/03/19 04:55:07;;;;;;;11.17;8.67;;;;;;;;;;5095561;28;21023;-65
2023/03/19 04:57:35;;;;;;;10.80;9.70;;;;;;;;;;5095556;28;20934;-65
2023/03/19 05:00:02;;;;;;;10.70;8.73;;;;;;;;;;5095616;28;20788;-65
2023/03/19 05:02:31;;;;;;;14.37;8.97;;;;;;;;;;5095451;28;20859;-65
2023/03/19 05:04:57;;;;;;;8.50;7.50;;;;;;;;;;5095549;28;20443;-65
2023/03/19 05:07:25;;;;;;;14.70;10.00;;;;;;;;;;5095722;28;20447;-65
2023/03/19 05:09:52;;;;;;;9.80;8.80;;;;;;;;;;5095381;28;20482;-65
2023/03/19 05:12:19;;;;;;;11.03;9.27;;;;;;;;;;5095446;28;20446;-65
2023/03/19 05:14:46;;;;;;;11.47;8.80;;;;;;;;;;5095312;28;20950;-65
2023/03/19 05:17:14;;;;;;;13.40;8.90;;;;;;;;;;5095169;28;20560;-65
2023/03/19 05:19:43;;;;;;;9.53;8.53;;;;;;;;;;5095339;28;20435;-66
2023/03/19 05:22:10;;;;;;;15.93;12.20;;;;;;;;;;5095031;28;20992;-65
2023/03/19 05:24:37;;;;;;;10.90;9.07;;;;;;;;;;5095116;28;20451;-65
2023/03/19 05:27:04;;;;;;;10.53;8.13;;;;;;;;;;5094953;28;20489;-66
2023/03/19 05:29:31;;;;;;;11.43;9.30;;;;;;;;;;5094838;28;20479;-65
2023/03/19 05:31:58;;;;;;;11.03;8.90;;;;;;;;;;5095131;28;20469;-65
2023/03/19 05:34:25;;;;;;;12.20;8.73;;;;;;;;;;5095061;28;20508;-65
2023/03/19 05:36:54;;;;;;;9.50;8.50;;;;;;;;;;5095046;28;20455;-65
2023/03/19 05:39:21;;;;;;;11.90;8.60;;;;;;;;;;5094917;28;20509;-65
2023/03/19 05:41:48;;;;;;;11.50;8.57;;;;;;;;;;5094780;28;20451;-65
2023/03/19 05:44:15;;;;;;;10.07;8.93;;;;;;;;;;5094558;28;20443;-65
2023/03/19 05:46:43;;;;;;;11.23;8.97;;;;;;;;;;5094509;28;20574;-65
2023/03/19 05:49:10;;;;;;;11.57;8.80;;;;;;;;;;5094754;28;20447;-65
2023/03/19 05:51:37;;;;;;;12.60;8.60;;;;;;;;;;5094627;28;20481;-65
2023/03/19 05:54:05;;;;;;;10.10;9.10;;;;;;;;;;5094429;28;20443;-65
2023/03/19 05:56:33;;;;;;;12.70;8.70;;;;;;;;;;5094495;28;20521;-65
2023/03/19 05:59:00;;;;;;;12.03;9.10;;;;;;;;;;5094554;28;20449;-65
2023/03/19 06:01:27;;;;;;;12.10;9.53;;;;;;;;;;5094394;28;20917;-65
2023/03/19 06:03:54;;;;;;;10.80;8.80;;;;;;;;;;5094379;28;20447;-65
2023/03/19 06:06:21;;;;;;;10.43;8.50;;;;;;;;;;5094263;28;20466;-65
2023/03/19 06:08:48;;;;;;;8.87;7.97;;;;;;;;;;5094193;28;20453;-65
2023/03/19 06:11:16;;;;;;;12.27;8.80;;;;;;;;;;5093958;28;20446;-65
2023/03/19 06:13:45;;;;;;;11.00;9.70;;;;;;;;;;5094073;28;20945;-65
2023/03/19 06:16:12;;;;;;;11.83;9.03;;;;;;;;;;5094091;28;20976;-65
2023/03/19 06:18:39;;;;;;;10.50;8.23;;;;;;;;;;5094034;28;20453;-65
2023/03/19 06:21:06;;;;;;;11.30;9.63;;;;;;;;;;5093913;28;20447;-65
2023/03/19 06:23:33;;;;;;;10.30;8.63;;;;;;;;;;5093981;28;20457;-65
2023/03/19 06:26:00;;;;;;;9.83;8.57;;;;;;;;;;5093775;28;20578;-65
2023/03/19 06:28:28;;;;;;;10.30;8.73;;;;;;;;;;5094046;28;20447;-65
2023/03/19 06:30:55;;;;;;;14.70;11.20;;;;;;;;;;5093775;28;20492;-65
2023/03/19 06:33:26;;;;;;;11.00;9.53;;;;;;;;;;5093860;28;20451;-65
2023/03/19 06:35:53;;;;;;;11.77;9.50;;;;;;;;;;5093806;28;20455;-65
2023/03/19 06:38:20;;;;;;;12.87;9.90;;;;;;;;;;5093581;28;20546;-65
2023/03/19 06:40:47;;;;;;;11.90;9.60;;;;;;;;;;5093732;28;20453;-65
2023/03/19 06:43:14;;;;;;;12.00;10.70;;;;;;;;;;5093696;28;20802;-65
2023/03/19 06:45:43;;;;;;;10.23;9.10;;;;;;;;;;5093797;28;20442;-65
2023/03/19 06:48:10;;;;;;;11.37;9.43;;;;;;;;;;5093519;28;20482;-65
2023/03/19 06:50:37;;;;;;;19.40;9.87;;;;;;;;;;5092911;28;20447;-65
2023/03/19 06:53:04;;;;;;;12.77;9.93;;;;;;;;;;5093337;28;20474;-65
2023/03/19 06:55:31;;;;;;;14.00;9.80;;;;;;;;;;5093572;28;20454;-65
2023/03/19 06:57:57;;;;;;;11.23;8.80;;;;;;;;;;5093481;28;20449;-65
2023/03/19 07:00:25;;;;;;;11.10;10.00;;;;;;;;;;5093239;28;20447;-65
2023/03/19 07:02:53;;;;;;;11.60;8.70;;;;;;;;;;5093305;28;20447;-65
2023/03/19 07:05:20;;;;;;;10.97;9.30;;;;;;;;;;5093201;28;20890;-65
2023/03/19 07:07:47;;;;;;;12.17;9.70;;;;;;;;;;5093315;28;20850;-65
2023/03/19 07:10:14;;;;;;;11.70;9.73;;;;;;;;;;5093218;28;20454;-65
2023/03/19 07:12:41;;;;;;;13.03;9.70;;;;;;;;;;5093335;28;20458;-65
2023/03/19 07:15:08;;;;;;;10.90;9.00;;;;;;;;;;5093180;28;20538;-65
2023/03/19 07:17:35;;;;;;;12.50;10.50;;;;;;;;;;5092995;28;20539;-65
2023/03/19 07:20:04;;;;;;;10.40;9.30;;;;;;;;;;5092932;28;20443;-65
2023/03/19 07:22:31;;;;;;;14.07;9.90;;;;;;;;;;5092928;28;20996;-65
2023/03/19 07:24:58;;;;;;;15.30;11.50;;;;;;;;;;5093143;28;20453;-65
2023/03/19 07:27:25;;;;;;;11.27;10.07;;;;;;;;;;5093029;28;20478;-65
2023/03/19 07:29:52;;;;;;;11.07;9.40;;;;;;;;;;5092933;28;20453;-65
2023/03/19 07:32:19;;;;;;;10.27;9.00;;;;;;;;;;5092847;28;20784;-65
2023/03/19 07:34:46;;;;;;;10.70;9.60;;;;;;;;;;5092841;28;20443;-65
2023/03/19 07:37:14;;;;;;;11.80;9.93;;;;;;;;;;5092849;28;20530;-65
2023/03/19 07:39:41;;;;;;;13.97;10.20;;;;;;;;;;5092989;28;20447;-65
2023/03/19 07:42:08;;;;;;;12.43;10.10;;;;;;;;;;5093205;28;20446;-65
2023/03/19 07:44:35;;;;;;;11.67;10.47;;;;;;;;;;5092914;28;20475;-65
2023/03/19 07:47:02;;;;;;;14.17;10.73;;;;;;;;;;5092708;28;20472;-65
2023/03/19 07:49:30;;;;;;;16.30;11.63;;;;;;;;;;5092864;28;20542;-66
2023/03/19 07:51:57;;;;;;;15.30;11.10;;;;;;;;;;5092899;28;20496;-65
2023/03/19 07:54:25;;;;;;;12.50;11.20;;;;;;;;;;5092907;28;20486;-65
2023/03/19 07:56:52;;;;;;;16.60;10.10;;;;;;;;;;5092836;28;20475;-65
2023/03/19 07:59:19;;;;;;;14.10;11.90;;;;;;;;;;5092680;28;20458;-65
2023/03/19 08:01:46;;;;;;;16.23;11.07;;;;;;;;;;5092694;28;20450;-65
2023/03/19 08:04:13;;;;;;;15.00;11.57;;;;;;;;;;5096704;28;20454;-65
2023/03/19 08:06:40;;;;;;;15.43;10.70;;;;;;;;;;5096582;28;20478;-66
2023/03/19 08:09:08;;;;;;;13.83;11.37;;;;;;;;;;5096500;28;20489;-65
2023/03/19 08:11:36;;;;;;;12.40;10.00;;;;;;;;;;5096545;28;20810;-65
2023/03/19 08:14:03;;;;;;;12.17;10.93;;;;;;;;;;5096360;28;20462;-65
2023/03/19 08:16:31;;;;;;;14.83;9.13;;;;;;;;;;5096091;28;20477;-65
2023/03/19 08:18:57;;;;;;;11.30;9.90;;;;;;;;;;5096509;28;20455;-65
2023/03/19 08:21:25;;;;;;;11.93;10.07;;;;;;;;;;5096357;28;20870;-65
2023/03/19 08:23:53;;;;;;;14.40;10.03;;;;;;;;;;5096332;28;20454;-65
2023/03/19 08:26:19;;;;;;;13.70;9.37;;;;;;;;;;5096156;28;20478;-67
2023/03/19 08:28:48;;;;;;;11.17;10.07;;;;;;;;;;5096188;28;20447;-65
2023/03/19 08:31:15;;;;;;;14.03;9.37;;;;;;;;;;5096276;28;20455;-66
2023/03/19 08:33:42;;;;;;;11.70;9.93;;;;;;;;;;5096242;28;20505;-65
2023/03/19 08:36:11;;;;;;;15.73;8.63;;;;;;;;;;5096101;28;20900;-66
2023/03/19 08:38:38;;;;;;;10.80;8.87;;;;;;;;;;5096002;28;20537;-66
2023/03/19 08:41:05;;;;;;;9.13;8.27;;;;;;;;;;5095799;28;20533;-65
2023/03/19 08:43:33;;;;;;;10.00;8.30;;;;;;;;;;5095829;28;20476;-65
2023/03/19 08:46:01;;;;;;;10.67;8.53;;;;;;;;;;5095829;28;20541;-65
2023/03/19 08:48:28;;;;;;;8.93;7.73;;;;;;;;;;5095803;28;20653;-66
2023/03/19 08:50:55;;;;;;;9.63;8.33;;;;;;;;;;5095794;28;20447;-65
2023/03/19 08:53:23;;;;;;;9.97;8.90;;;;;;;;;;5095755;28;20470;-65
2023/03/19 08:55:53;;;;;;;13.03;9.73;;;;;;;;;;5095520;28;20447;-64
2023/03/19 08:58:20;;;;;;;12.47;9.47;;;;;;;;;;5095716;28;20458;-65
2023/03/19 09:00:47;;;;;;;13.17;10.17;;;;;;;;;;5095596;28;20458;-65
2023/03/19 09:03:16;;;;;;;9.67;8.50;;;;;;;;;;5095540;28;20447;-65
2023/03/19 09:05:43;;;;;;;12.53;10.40;;;;;;;;;;5095535;28;20881;-65
2023/03/19 09:08:10;;;;;;;11.30;9.77;;;;;;;;;;5095179;28;21053;-65
2023/03/19 09:10:37;;;;;;;10.43;9.00;;;;;;;;;;5095362;28;20538;-65
2023/03/19 09:13:04;;;;;;;10.43;9.47;;;;;;;;;;5095034;28;20534;-65
2023/03/19 09:15:31;;;;;;;11.50;10.37;;;;;;;;;;5095336;28;20810;-65
2023/03/19 09:17:58;;;;;;;11.50;10.30;;;;;;;;;;5095049;28;20475;-65
2023/03/19 09:20:26;;;;;;;11.33;10.03;;;;;;;;;;5095122;28;20852;-65
2023/03/19 09:22:53;;;;;;;14.50;11.23;;;;;;;;;;5095062;28;20443;-65
2023/03/19 09:25:20;;;;;;;11.50;9.67;;;;;;;;;;5095000;28;20447;-65
2023/03/19 09:27:47;;;;;;;10.80;9.70;;;;;;;;;;5094979;28;20483;-65
2023/03/19 09:30:14;;;;;;;11.00;9.80;;;;;;;;;;5094922;28;20447;-65
2023/03/19 09:32:41;;;;;;;11.60;9.30;;;;;;;;;;5094998;28;20817;-65
2023/03/19 09:35:09;;;;;;;12.40;10.70;;;;;;;;;;5094862;28;20454;-65
2023/03/19 09:37:37;;;;;;;12.97;10.47;;;;;;;;;;5094810;28;20454;-65
2023/03/19 09:40:05;;;;;;;12.40;10.40;;;;;;;;;;5094923;28;20490;-64
2023/03/19 09:42:41;;;;;;;11.93;10.73;;;;;;;;;;5094880;28;20454;-65
2023/03/19 09:45:12;;;;;;;13.13;10.10;;;;;;;;;;5094768;28;20479;-65
2023/03/19 09:47:40;;;;;;;12.87;11.13;;;;;;;;;;5093425;28;20479;-65
2023/03/19 09:50:11;;;;;;;13.40;10.63;;;;;;;;;;5094502;28;20454;-65
2023/03/19 09:52:43;;;;;;;13.17;11.20;;;;;;;;;;5094758;28;20475;-65
2023/03/19 09:55:16;;;;;;;11.17;10.07;;;;;;;;;;5094972;28;20451;-65
2023/03/19 09:57:43;;;;;;;13.00;11.27;;;;;;;;;;5094427;28;20447;-65
2023/03/19 10:00:19;;;;;;;15.47;10.70;;;;;;;;;;5094353;28;20533;-65
2023/03/19 10:02:46;;;;;;;11.47;10.30;;;;;;;;;;5094288;28;21005;-65
2023/03/19 10:05:19;;;;;;;11.20;10.10;;;;;;;;;;5094386;28;20486;-65
2023/03/19 10:07:54;;;;;;;13.90;11.23;;;;;;;;;;5094301;28;20475;-65
2023/03/19 10:10:28;;;;;;;14.10;11.67;;;;;;;;;;5094262;28;20450;-65
2023/03/19 10:13:00;;;;;;;14.53;12.13;;;;;;;;;;5094105;28;20458;-65
2023/03/19 10:15:29;;;;;;;12.00;10.63;;;;;;;;;;5094501;28;20533;-65
2023/03/19 10:18:01;;;;;;;12.00;10.40;;;;;;;;;;5094083;28;20563;-65
2023/03/19 10:20:34;;;;;;;12.53;9.93;;;;;;;;;;5093977;28;20458;-65
2023/03/19 10:23:09;;;;;;;11.23;10.13;;;;;;;;;;5093851;28;20447;-65
2023/03/19 10:25:38;;;;;;;14.73;9.90;;;;;;;;;;5093045;28;20450;-65
2023/03/19 10:28:12;;;;;;;11.73;9.90;;;;;;;;;;5093730;28;20512;-65
2023/03/19 10:30:39;;;;;;;10.67;9.60;;;;;;;;;;5093883;28;20471;-65
2023/03/19 10:33:13;;;;;;;12.73;9.90;;;;;;;;;;5093918;28;20536;-66
2023/03/19 10:35:41;;;;;;;8.90;8.10;;;;;;;;;;5093703;28;20905;-65
2023/03/19 10:38:17;;;;;;;8.77;7.97;;;;;;;;;;5093857;28;20443;-65
2023/03/19 10:40:48;;;;;;;8.80;7.70;;;;;;;;;;5093587;28;20451;-65
2023/03/19 10:43:17;;;;;;;8.23;7.43;;;;;;;;;;5093701;28;20544;-65
2023/03/19 10:45:45;;;;;;;9.47;7.60;;;;;;;;;;5093545;28;20455;-66
2023/03/19 10:48:13;;;;;;;7.23;6.70;;;;;;;;;;5093339;28;20485;-66
2023/03/19 10:50:46;;;;;;;8.17;7.30;;;;;;;;;;5093530;28;20473;-66
2023/03/19 10:53:26;;;;;;;6.90;6.07;;;;;;;;;;5093633;28;20462;-66
2023/03/19 10:55:54;;;;;;;6.80;6.20;;;;;;;;;;5093318;28;20541;-66
2023/03/19 10:58:24;;;;;;;6.37;5.77;;;;;;;;;;5093333;28;20833;-66
2023/03/19 11:00:56;;;;;;;7.83;6.20;;;;;;;;;;5093194;28;20529;-66
2023/03/19 11:03:31;;;;;;;7.03;6.33;;;;;;;;;;5093294;28;20533;-65
2023/03/19 11:06:05;;;;;;;8.70;6.07;;;;;;;;;;5093317;28;20460;-65
2023/03/19 11:08:36;;;;;;;6.13;5.60;;;;;;;;;;5093117;28;20566;-65
2023/03/19 11:11:03;;;;;;;5.70;5.20;;;;;;;;;;5093093;28;20538;-65
2023/03/19 11:13:30;;;;;;;8.27;5.93;;;;;;;;;;5092555;28;20542;-65
2023/03/19 11:15:59;;;;;;;5.90;5.40;;;;;;;;;;5092678;28;20451;-65
2023/03/19 11:18:28;;;;;;;5.87;5.33;;;;;;;;;;5092634;28;20479;-65
2023/03/19 11:20:57;;;;;;;12.67;11.37;;;;;;;;;;5092398;28;20450;-65
2023/03/19 11:23:27;;;;;;;6.60;6.00;;;;;;;;;;5092485;28;20817;-66
2023/03/19 11:26:00;;;;;;;5.40;5.00;;;;;;;;;;5092481;28;20533;-65
2023/03/19 11:28:32;;;;;;;4.23;3.80;;;;;;;;;;5092586;28;20480;-66
2023/03/19 11:31:02;;;;;;;4.40;4.10;;;;;;;;;;5092397;28;20447;-65
2023/03/19 11:33:37;;;;;;;5.97;4.47;;;;;;;;;;5092461;28;20496;-65
2023/03/19 11:36:09;;;;;;;4.53;4.13;;;;;;;;;;5092765;28;20890;-65
2023/03/19 11:38:39;;;;;;;5.90;5.30;;;;;;;;;;5096937;28;20451;-65
2023/03/19 11:41:15;;;;;;;5.40;4.90;;;;;;;;;;5096644;28;20446;-66
2023/03/19 11:43:49;;;;;;;4.60;4.20;;;;;;;;;;5096685;28;20810;-65
2023/03/19 11:46:31;;;;;;;5.70;4.60;;;;;;;;;;5096547;28;20534;-65
2023/03/19 11:49:07;;;;;;;5.50;4.73;;;;;;;;;;5096501;28;20573;-65
2023/03/19 11:51:37;;;;;;;5.60;5.10;;;;;;;;;;5096467;28;20498;-65
2023/03/19 11:54:06;;;;;;;5.40;4.90;;;;;;;;;;5096415;28;20534;-66
2023/03/19 11:56:41;;;;;;;6.60;4.67;;;;;;;;;;5096981;28;20500;-65
2023/03/19 11:59:17;;;;;;;6.23;5.63;;;;;;;;;;5095983;28;20467;-66
2023/03/19 12:02:04;;;;;;;6.37;5.80;;;;;;;;;;5096226;28;20810;-66
2023/03/19 12:04:39;;;;;;;6.63;6.00;;;;;;;;;;5096241;28;20504;-65
2023/03/19 12:07:13;;;;;;;7.80;5.63;;;;;;;;;;5096017;28;20456;-65
2023/03/19 12:09:43;;;;;;;6.30;5.50;;;;;;;;;;5095801;28;20456;-65
2023/03/19 12:12:18;;;;;;;5.73;5.23;;;;;;;;;;5096548;28;20451;-65
2023/03/19 12:14:52;;;;;;;6.30;5.80;;;;;;;;;;5096005;28;20469;-66
2023/03/19 12:17:24;;;;;;;5.93;5.53;;;;;;;;;;5095693;28;20515;-65
2023/03/19 12:19:58;;;;;;;6.40;5.83;;;;;;;;;;5095645;28;20451;-66
2023/03/19 12:22:31;;;;;;;7.77;6.07;;;;;;;;;;5095671;28;20450;-66
2023/03/19 12:25:07;;;;;;;7.27;6.70;;;;;;;;;;5095688;28;20461;-66
2023/03/19 12:27:38;;;;;;;6.47;5.97;;;;;;;;;;5095421;28;20447;-65
2023/03/19 12:30:15;;;;;;;5.13;4.73;;;;;;;;;;5095401;28;20482;-65
2023/03/19 12:32:49;;;;;;;5.90;4.67;;;;;;;;;;5095584;28;20444;-66
2023/03/19 12:35:17;;;;;;;5.07;4.20;;;;;;;;;;5095510;28;20535;-66
2023/03/19 12:37:47;;;;;;;3.63;3.43;;;;;;;;;;5095496;28;20451;-65
2023/03/19 12:40:17;;;;;;;6.13;5.50;;;;;;;;;;5095450;28;20543;-65
2023/03/19 12:42:46;;;;;;;3.77;3.47;;;;;;;;;;5095226;28;20447;-66
2023/03/19 12:45:19;;;;;;;3.70;3.40;;;;;;;;;;5095268;28;20445;-65
2023/03/19 12:47:46;;;;;;;3.00;2.60;;;;;;;;;;5094526;28;20468;-65
2023/03/19 12:50:16;;;;;;;2.50;2.30;;;;;;;;;;5095194;28;20792;-66
2023/03/19 12:52:45;;;;;;;2.97;2.27;;;;;;;;;;5095283;28;20906;-66
2023/03/19 12:55:17;;;;;;;4.90;2.50;;;;;;;;;;5095090;28;20948;-66
2023/03/19 12:57:48;;;;;;;2.70;2.50;;;;;;;;;;5095525;28;20435;-66
2023/03/19 13:00:18;;;;;;;2.30;2.13;;;;;;;;;;5095171;28;20513;-66
2023/03/19 13:02:48;;;;;;;5.40;4.70;;;;;;;;;;5095142;28;20449;-65
2023/03/19 13:05:22;;;;;;;3.20;3.00;;;;;;;;;;5095392;28;20443;-66
2023/03/19 13:07:52;;;;;;;8.40;3.83;;;;;;;;;;5095024;28;20518;-66
2023/03/19 13:10:21;;;;;;;2.50;2.30;;;;;;;;;;5094905;28;20479;-66
2023/03/19 13:12:51;;;;;;;2.83;2.63;;;;;;;;;;5094742;28;20932;-66
2023/03/19 13:15:22;;;;;;;2.63;2.43;;;;;;;;;;5094845;28;20882;-66
2023/03/19 13:17:53;;;;;;;5.57;2.77;;;;;;;;;;5094765;28;20473;-66
2023/03/19 13:20:24;;;;;;;3.43;2.47;;;;;;;;;;5094561;28;20884;-65
2023/03/19 13:22:54;;;;;;;4.90;3.13;;;;;;;;;;5094922;28;20495;-66
2023/03/19 13:25:23;;;;;;;3.83;3.37;;;;;;;;;;5094626;28;20449;-66
2023/03/19 13:27:54;;;;;;;11.60;9.97;;;;;;;;;;5094608;28;20958;-66
2023/03/19 13:30:21;;;;;;;3.00;2.80;;;;;;;;;;5094542;28;20890;-66
2023/03/19 13:32:50;;;;;;;5.10;4.47;;;;;;;;;;5094298;28;20538;-66
2023/03/19 13:35:25;;;;;;;4.37;3.97;;;;;;;;;;5094572;28;20871;-66
2023/03/19 13:37:56;;;;;;;4.10;3.70;;;;;;;;;;5094645;28;20447;-66
2023/03/19 13:40:40;;;;;;;3.73;3.43;;;;;;;;;;5094277;28;20970;-66
2023/03/19 13:43:21;;;;;;;6.57;5.87;;;;;;;;;;5094247;28;20800;-66
2023/03/19 13:45:52;;;;;;;4.77;4.00;;;;;;;;;;5094398;28;20453;-66
2023/03/19 13:48:24;;;;;;;4.20;3.70;;;;;;;;;;5094060;28;20480;-66
2023/03/19 13:50:54;;;;;;;4.67;3.50;;;;;;;;;;5093987;28;20552;-66
2023/03/19 13:53:23;;;;;;;3.83;3.50;;;;;;;;;;5093843;28;20926;-66
2023/03/19 13:55:54;;;;;;;5.10;3.43;;;;;;;;;;5093923;28;20858;-66
2023/03/19 14:01:05;;;;;;;4.83;3.83;;;;;;;;;;5092341;28;20524;-65
2023/03/19 14:03:33;;;;;;;6.03;3.27;;;;;;;;;;5093647;28;20490;-65
2023/03/19 14:06:00;;;;;;;5.60;3.93;;;;;;;;;;5093622;28;20540;-65
2023/03/19 14:08:28;;;;;;;4.07;3.40;;;;;;;;;;5093425;28;20651;-65
2023/03/19 14:10:57;;;;;;;4.20;3.90;;;;;;;;;;5093449;28;20541;-65
2023/03/19 14:13:30;;;;;;;4.77;3.70;;;;;;;;;;5093779;28;20449;-65
2023/03/19 14:16:01;;;;;;;5.17;3.70;;;;;;;;;;5093543;28;20924;-65
2023/03/19 14:18:29;;;;;;;4.47;3.30;;;;;;;;;;5093203;28;20472;-65
2023/03/19 14:20:59;;;;;;;3.80;3.37;;;;;;;;;;5093246;28;20504;-65
2023/03/19 14:23:27;;;;;;;4.17;3.50;;;;;;;;;;5093508;28;20507;-65
2023/03/19 14:26:00;;;;;;;6.43;5.17;;;;;;;;;;5093463;28;20523;-65
2023/03/19 14:28:35;;;;;;;3.80;3.50;;;;;;;;;;5093017;28;20990;-65
2023/03/19 14:31:03;;;;;;;5.43;4.90;;;;;;;;;;5093201;28;20482;-65
2023/03/19 14:33:33;;;;;;;5.73;4.20;;;;;;;;;;5093063;28;20555;-65
2023/03/19 14:36:03;;;;;;;5.87;4.50;;;;;;;;;;5093685;28;20533;-65
2023/03/19 14:38:33;;;;;;;4.30;3.90;;;;;;;;;;5093461;28;20452;-65
2023/03/19 14:41:01;;;;;;;6.20;4.70;;;;;;;;;;5093020;28;20543;-65
2023/03/19 14:43:40;;;;;;;11.37;4.90;;;;;;;;;;5093084;28;20445;-65
2023/03/19 14:46:17;;;;;;;3.90;3.60;;;;;;;;;;5093393;28;20461;-65